sensor_id;sensor_type;location;lat;lon;timestamp;pressure;altitude;pressure_sealevel;temperature
77355;BMP280;66422;51.202;19.936;2023-06-05T00:09:36;100001.23;;;8.46
77355;BMP280;66422;51.202;19.936;2023-06-05T00:24:57;100002.66;;;8.23
77355;BMP280;66422;51.202;19.936;2023-06-05T00:40:17;99995.93;;;7.76
77355;BMP280;66422;51.202;19.936;2023-06-05T00:55:37;100001.47;;;7.73
77355;BMP280;66422;51.202;19.936;2023-06-05T01:10:59;99995.02;;;7.54
77355;BMP280;66422;51.202;19.936;2023-06-05T01:26:33;99990.19;;;7.57
77355;BMP280;66422;51.202;19.936;2023-06-05T01:41:57;99992.11;;;7.13
77355;BMP280;66422;51.202;19.936;2023-06-05T01:57:18;99985.19;;;6.79
77355;BMP280;66422;51.202;19.936;2023-06-05T02:12:37;99979.55;;;6.84
77355;BMP280;66422;51.202;19.936;2023-06-05T02:27:57;99974.77;;;6.74
77355;BMP280;66422;51.202;19.936;2023-06-05T02:43:17;99967.53;;;6.61
77355;BMP280;66422;51.202;19.936;2023-06-05T02:58:38;99973.59;;;6.55
77355;BMP280;66422;51.202;19.936;2023-06-05T03:13:59;99978.29;;;6.67
77355;BMP280;66422;51.202;19.936;2023-06-05T03:29:20;99981.62;;;6.60
77355;BMP280;66422;51.202;19.936;2023-06-05T03:44:40;99983.59;;;7.62
77355;BMP280;66422;51.202;19.936;2023-06-05T04:00:00;99983.90;;;8.06
77355;BMP280;66422;51.202;19.936;2023-06-05T04:15:25;99989.23;;;9.57
77355;BMP280;66422;51.202;19.936;2023-06-05T04:30:46;99986.64;;;10.31
77355;BMP280;66422;51.202;19.936;2023-06-05T04:46:06;99995.27;;;11.37
77355;BMP280;66422;51.202;19.936;2023-06-05T05:01:27;99995.00;;;12.18
77355;BMP280;66422;51.202;19.936;2023-06-05T05:16:47;100040.54;;;15.34
77355;BMP280;66422;51.202;19.936;2023-06-05T05:32:09;100061.92;;;21.32
77355;BMP280;66422;51.202;19.936;2023-06-05T05:47:29;100065.50;;;23.69
77355;BMP280;66422;51.202;19.936;2023-06-05T06:02:49;100069.49;;;26.78
77355;BMP280;66422;51.202;19.936;2023-06-05T06:18:10;100075.17;;;26.16
77355;BMP280;66422;51.202;19.936;2023-06-05T06:33:31;100072.56;;;26.50
77355;BMP280;66422;51.202;19.936;2023-06-05T06:48:51;100017.31;;;22.84
77355;BMP280;66422;51.202;19.936;2023-06-05T07:04:20;100024.50;;;22.97
77355;BMP280;66422;51.202;19.936;2023-06-05T07:19:40;100017.88;;;23.77
77355;BMP280;66422;51.202;19.936;2023-06-05T07:35:00;100017.39;;;24.32
77355;BMP280;66422;51.202;19.936;2023-06-05T07:50:20;100019.15;;;24.31
77355;BMP280;66422;51.202;19.936;2023-06-05T08:05:40;100012.61;;;24.14
77355;BMP280;66422;51.202;19.936;2023-06-05T08:21:02;100008.89;;;24.09
77355;BMP280;66422;51.202;19.936;2023-06-05T08:36:21;100007.33;;;25.37
77355;BMP280;66422;51.202;19.936;2023-06-05T08:51:44;100001.02;;;25.04
77355;BMP280;66422;51.202;19.936;2023-06-05T09:07:04;99988.45;;;25.06
77355;BMP280;66422;51.202;19.936;2023-06-05T09:22:32;99994.95;;;25.17
77355;BMP280;66422;51.202;19.936;2023-06-05T09:37:55;99970.73;;;24.52
77355;BMP280;66422;51.202;19.936;2023-06-05T09:53:15;99958.97;;;25.20
77355;BMP280;66422;51.202;19.936;2023-06-05T10:08:36;99960.27;;;26.19
77355;BMP280;66422;51.202;19.936;2023-06-05T10:24:00;99943.77;;;25.27
77355;BMP280;66422;51.202;19.936;2023-06-05T10:39:22;99930.33;;;25.45
77355;BMP280;66422;51.202;19.936;2023-06-05T11:25:25;99896.12;;;27.34
77355;BMP280;66422;51.202;19.936;2023-06-05T11:40:48;99892.61;;;26.31
77355;BMP280;66422;51.202;19.936;2023-06-05T11:56:15;99889.16;;;26.10
77355;BMP280;66422;51.202;19.936;2023-06-05T12:11:36;99872.73;;;25.96
77355;BMP280;66422;51.202;19.936;2023-06-05T12:26:59;99865.73;;;26.35
77355;BMP280;66422;51.202;19.936;2023-06-05T12:42:19;99867.90;;;26.22
77355;BMP280;66422;51.202;19.936;2023-06-05T12:57:39;99844.23;;;26.73
77355;BMP280;66422;51.202;19.936;2023-06-05T13:12:58;99835.73;;;26.24
77355;BMP280;66422;51.202;19.936;2023-06-05T13:28:18;99824.06;;;26.20
77355;BMP280;66422;51.202;19.936;2023-06-05T13:43:37;99799.08;;;26.86
77355;BMP280;66422;51.202;19.936;2023-06-05T13:58:57;99788.91;;;26.78
77355;BMP280;66422;51.202;19.936;2023-06-05T14:14:17;99776.01;;;26.09
77355;BMP280;66422;51.202;19.936;2023-06-05T14:29:37;99768.52;;;26.23
77355;BMP280;66422;51.202;19.936;2023-06-05T14:44:57;99755.52;;;26.88
77355;BMP280;66422;51.202;19.936;2023-06-05T15:00:17;99742.32;;;26.90
77355;BMP280;66422;51.202;19.936;2023-06-05T15:15:37;99724.25;;;26.66
77355;BMP280;66422;51.202;19.936;2023-06-05T15:30:57;99731.30;;;26.20
77355;BMP280;66422;51.202;19.936;2023-06-05T15:46:16;99729.02;;;25.97
77355;BMP280;66422;51.202;19.936;2023-06-05T16:01:36;99727.88;;;25.97
77355;BMP280;66422;51.202;19.936;2023-06-05T16:16:56;99713.55;;;25.81
77355;BMP280;66422;51.202;19.936;2023-06-05T16:32:16;99719.40;;;25.39
77355;BMP280;66422;51.202;19.936;2023-06-05T16:47:36;99720.00;;;25.21
77355;BMP280;66422;51.202;19.936;2023-06-05T17:02:55;99719.06;;;25.06
77355;BMP280;66422;51.202;19.936;2023-06-05T17:18:15;99720.85;;;24.78
77355;BMP280;66422;51.202;19.936;2023-06-05T17:33:34;99722.77;;;24.37
77355;BMP280;66422;51.202;19.936;2023-06-05T17:48:54;99719.94;;;23.95
77355;BMP280;66422;51.202;19.936;2023-06-05T18:04:14;99708.47;;;23.76
77355;BMP280;66422;51.202;19.936;2023-06-05T18:19:37;99712.16;;;22.64
77355;BMP280;66422;51.202;19.936;2023-06-05T18:34:57;99728.63;;;21.77
77355;BMP280;66422;51.202;19.936;2023-06-05T18:50:17;99736.89;;;21.10
77355;BMP280;66422;51.202;19.936;2023-06-05T19:05:38;99749.42;;;20.24
77355;BMP280;66422;51.202;19.936;2023-06-05T19:20:59;99759.89;;;19.37
77355;BMP280;66422;51.202;19.936;2023-06-05T19:36:19;99771.10;;;18.70
77355;BMP280;66422;51.202;19.936;2023-06-05T19:51:38;99776.56;;;18.10
77355;BMP280;66422;51.202;19.936;2023-06-05T20:06:59;99781.19;;;17.70
77355;BMP280;66422;51.202;19.936;2023-06-05T20:22:18;99772.15;;;17.57
77355;BMP280;66422;51.202;19.936;2023-06-05T20:37:39;99773.80;;;17.21
77355;BMP280;66422;51.202;19.936;2023-06-05T20:52:59;99772.77;;;17.06
77355;BMP280;66422;51.202;19.936;2023-06-05T21:08:19;99775.33;;;16.73
77355;BMP280;66422;51.202;19.936;2023-06-05T21:23:38;99784.21;;;16.54
77355;BMP280;66422;51.202;19.936;2023-06-05T21:38:58;99784.47;;;16.18
77355;BMP280;66422;51.202;19.936;2023-06-05T21:54:18;99785.51;;;16.15
77355;BMP280;66422;51.202;19.936;2023-06-05T22:09:37;99791.19;;;16.04
77355;BMP280;66422;51.202;19.936;2023-06-05T22:24:57;99793.70;;;15.89
77355;BMP280;66422;51.202;19.936;2023-06-05T22:40:17;99785.55;;;15.48
77355;BMP280;66422;51.202;19.936;2023-06-05T22:55:37;99783.65;;;15.24
77355;BMP280;66422;51.202;19.936;2023-06-05T23:10:57;99778.27;;;14.55
77355;BMP280;66422;51.202;19.936;2023-06-05T23:26:17;99777.29;;;13.91
77355;BMP280;66422;51.202;19.936;2023-06-05T23:41:38;99775.36;;;13.84
77355;BMP280;66422;51.202;19.936;2023-06-05T23:56:57;99779.71;;;12.92
